sensor_id;sensor_type;location;lat;lon;timestamp;P1;durP1;ratioP1;P2;durP2;ratioP2
63807;SDS011;49961;43.970;22.868;2022-09-01T00:00:39;23.10;;;20.80;;
63807;SDS011;49961;43.970;22.868;2022-09-01T00:01:48;23.17;;;20.63;;
63807;SDS011;49961;43.970;22.868;2022-09-01T00:02:51;22.30;;;20.03;;
63807;SDS011;49961;43.970;22.868;2022-09-01T00:03:52;22.43;;;20.33;;
63807;SDS011;49961;43.970;22.868;2022-09-01T00:04:54;22.07;;;19.73;;
63807;SDS011;49961;43.970;22.868;2022-09-01T00:05:57;21.60;;;19.50;;
63807;SDS011;49961;43.970;22.868;2022-09-01T00:06:57;22.70;;;20.27;;
63807;SDS011;49961;43.970;22.868;2022-09-01T00:07:58;22.20;;;20.27;;
63807;SDS011;49961;43.970;22.868;2022-09-01T00:09:01;23.33;;;20.80;;
63807;SDS011;49961;43.970;22.868;2022-09-01T00:10:04;22.30;;;20.13;;
63807;SDS011;49961;43.970;22.868;2022-09-01T00:11:06;22.17;;;20.07;;
63807;SDS011;49961;43.970;22.868;2022-09-01T00:12:07;21.60;;;19.40;;
63807;SDS011;49961;43.970;22.868;2022-09-01T00:13:08;20.80;;;19.00;;
63807;SDS011;49961;43.970;22.868;2022-09-01T00:14:09;20.47;;;18.57;;
63807;SDS011;49961;43.970;22.868;2022-09-01T00:15:11;20.60;;;18.43;;
63807;SDS011;49961;43.970;22.868;2022-09-01T00:16:12;20.53;;;18.43;;
63807;SDS011;49961;43.970;22.868;2022-09-01T00:17:14;20.87;;;18.50;;
63807;SDS011;49961;43.970;22.868;2022-09-01T00:18:14;24.40;;;17.90;;
63807;SDS011;49961;43.970;22.868;2022-09-01T00:19:15;19.80;;;17.93;;
63807;SDS011;49961;43.970;22.868;2022-09-01T00:20:15;18.47;;;16.63;;
63807;SDS011;49961;43.970;22.868;2022-09-01T00:21:17;19.90;;;17.93;;
63807;SDS011;49961;43.970;22.868;2022-09-01T00:22:20;19.30;;;17.40;;
63807;SDS011;49961;43.970;22.868;2022-09-01T00:23:21;18.20;;;16.57;;
63807;SDS011;49961;43.970;22.868;2022-09-01T00:24:21;19.47;;;17.43;;
63807;SDS011;49961;43.970;22.868;2022-09-01T00:25:22;18.33;;;16.40;;
63807;SDS011;49961;43.970;22.868;2022-09-01T00:26:23;18.57;;;16.77;;
63807;SDS011;49961;43.970;22.868;2022-09-01T00:27:24;19.07;;;16.33;;
63807;SDS011;49961;43.970;22.868;2022-09-01T00:28:24;18.13;;;16.47;;
63807;SDS011;49961;43.970;22.868;2022-09-01T00:29:25;17.87;;;16.13;;
63807;SDS011;49961;43.970;22.868;2022-09-01T00:30:26;17.87;;;16.13;;
63807;SDS011;49961;43.970;22.868;2022-09-01T00:31:27;19.83;;;15.70;;
63807;SDS011;49961;43.970;22.868;2022-09-01T00:32:28;20.50;;;15.13;;
63807;SDS011;49961;43.970;22.868;2022-09-01T00:33:28;15.53;;;14.13;;
63807;SDS011;49961;43.970;22.868;2022-09-01T00:34:29;17.17;;;15.37;;
63807;SDS011;49961;43.970;22.868;2022-09-01T00:35:30;16.87;;;15.17;;
63807;SDS011;49961;43.970;22.868;2022-09-01T00:36:30;17.20;;;15.33;;
63807;SDS011;49961;43.970;22.868;2022-09-01T00:37:31;16.10;;;14.40;;
63807;SDS011;49961;43.970;22.868;2022-09-01T00:38:31;16.77;;;15.10;;
63807;SDS011;49961;43.970;22.868;2022-09-01T00:39:33;16.70;;;15.03;;
63807;SDS011;49961;43.970;22.868;2022-09-01T00:40:33;16.97;;;15.17;;
63807;SDS011;49961;43.970;22.868;2022-09-01T00:41:35;20.13;;;15.27;;
63807;SDS011;49961;43.970;22.868;2022-09-01T00:42:41;17.33;;;15.13;;
63807;SDS011;49961;43.970;22.868;2022-09-01T00:43:51;17.93;;;15.07;;
63807;SDS011;49961;43.970;22.868;2022-09-01T00:44:56;16.57;;;14.90;;
63807;SDS011;49961;43.970;22.868;2022-09-01T00:45:57;17.07;;;15.57;;
63807;SDS011;49961;43.970;22.868;2022-09-01T00:46:57;16.80;;;15.13;;
63807;SDS011;49961;43.970;22.868;2022-09-01T00:47:58;16.47;;;14.70;;
63807;SDS011;49961;43.970;22.868;2022-09-01T00:50:05;16.67;;;14.20;;
63807;SDS011;49961;43.970;22.868;2022-09-01T00:51:07;18.00;;;13.47;;
63807;SDS011;49961;43.970;22.868;2022-09-01T00:52:12;18.33;;;14.40;;
63807;SDS011;49961;43.970;22.868;2022-09-01T00:53:30;16.30;;;14.70;;
63807;SDS011;49961;43.970;22.868;2022-09-01T00:54:33;16.93;;;13.97;;
63807;SDS011;49961;43.970;22.868;2022-09-01T00:55:38;23.43;;;16.33;;
63807;SDS011;49961;43.970;22.868;2022-09-01T00:56:39;25.17;;;14.63;;
63807;SDS011;49961;43.970;22.868;2022-09-01T00:57:40;17.27;;;13.93;;
63807;SDS011;49961;43.970;22.868;2022-09-01T00:58:42;16.83;;;13.43;;
63807;SDS011;49961;43.970;22.868;2022-09-01T00:59:45;22.57;;;13.17;;
63807;SDS011;49961;43.970;22.868;2022-09-01T01:00:59;17.53;;;13.03;;
63807;SDS011;49961;43.970;22.868;2022-09-01T01:02:01;20.27;;;13.17;;
63807;SDS011;49961;43.970;22.868;2022-09-01T01:03:02;22.27;;;12.83;;
63807;SDS011;49961;43.970;22.868;2022-09-01T01:04:03;15.57;;;12.50;;
63807;SDS011;49961;43.970;22.868;2022-09-01T01:05:05;22.60;;;13.20;;
63807;SDS011;49961;43.970;22.868;2022-09-01T01:06:06;14.47;;;13.17;;
63807;SDS011;49961;43.970;22.868;2022-09-01T01:07:08;18.03;;;13.17;;
63807;SDS011;49961;43.970;22.868;2022-09-01T01:08:10;16.77;;;13.50;;
63807;SDS011;49961;43.970;22.868;2022-09-01T01:09:11;16.63;;;14.20;;
63807;SDS011;49961;43.970;22.868;2022-09-01T01:10:12;15.40;;;14.00;;
63807;SDS011;49961;43.970;22.868;2022-09-01T01:11:14;16.77;;;14.87;;
63807;SDS011;49961;43.970;22.868;2022-09-01T01:12:16;17.23;;;14.80;;
63807;SDS011;49961;43.970;22.868;2022-09-01T01:13:17;19.23;;;15.23;;
63807;SDS011;49961;43.970;22.868;2022-09-01T01:14:19;16.27;;;14.03;;
63807;SDS011;49961;43.970;22.868;2022-09-01T01:15:20;16.60;;;14.90;;
63807;SDS011;49961;43.970;22.868;2022-09-01T01:16:21;17.93;;;15.33;;
63807;SDS011;49961;43.970;22.868;2022-09-01T01:17:24;18.60;;;15.03;;
63807;SDS011;49961;43.970;22.868;2022-09-01T01:18:24;14.70;;;13.23;;
63807;SDS011;49961;43.970;22.868;2022-09-01T01:19:39;15.00;;;13.47;;
63807;SDS011;49961;43.970;22.868;2022-09-01T01:21:02;14.83;;;13.50;;
63807;SDS011;49961;43.970;22.868;2022-09-01T01:24:40;15.87;;;13.33;;
63807;SDS011;49961;43.970;22.868;2022-09-01T01:25:24;15.23;;;13.73;;
63807;SDS011;49961;43.970;22.868;2022-09-01T01:26:25;15.50;;;13.87;;
63807;SDS011;49961;43.970;22.868;2022-09-01T01:27:30;18.10;;;14.50;;
63807;SDS011;49961;43.970;22.868;2022-09-01T01:28:36;16.50;;;14.90;;
63807;SDS011;49961;43.970;22.868;2022-09-01T01:29:39;17.23;;;14.57;;
63807;SDS011;49961;43.970;22.868;2022-09-01T01:30:42;16.13;;;14.50;;
63807;SDS011;49961;43.970;22.868;2022-09-01T01:31:51;18.03;;;15.50;;
63807;SDS011;49961;43.970;22.868;2022-09-01T01:32:52;15.63;;;14.03;;
63807;SDS011;49961;43.970;22.868;2022-09-01T01:33:56;18.17;;;14.67;;
63807;SDS011;49961;43.970;22.868;2022-09-01T01:34:58;21.83;;;14.70;;
63807;SDS011;49961;43.970;22.868;2022-09-01T01:36:02;18.00;;;14.20;;
63807;SDS011;49961;43.970;22.868;2022-09-01T01:37:06;20.80;;;14.60;;
63807;SDS011;49961;43.970;22.868;2022-09-01T01:38:09;18.73;;;15.97;;
63807;SDS011;49961;43.970;22.868;2022-09-01T01:39:14;18.63;;;15.40;;
63807;SDS011;49961;43.970;22.868;2022-09-01T01:40:16;18.30;;;15.10;;
63807;SDS011;49961;43.970;22.868;2022-09-01T01:41:18;18.77;;;14.90;;
63807;SDS011;49961;43.970;22.868;2022-09-01T01:42:20;19.27;;;15.13;;
63807;SDS011;49961;43.970;22.868;2022-09-01T01:43:23;19.93;;;15.00;;
63807;SDS011;49961;43.970;22.868;2022-09-01T01:44:25;18.80;;;15.67;;
63807;SDS011;49961;43.970;22.868;2022-09-01T01:45:30;17.30;;;15.50;;
63807;SDS011;49961;43.970;22.868;2022-09-01T01:46:31;17.97;;;15.27;;
63807;SDS011;49961;43.970;22.868;2022-09-01T01:47:32;16.30;;;14.60;;
63807;SDS011;49961;43.970;22.868;2022-09-01T01:48:34;16.67;;;14.50;;
63807;SDS011;49961;43.970;22.868;2022-09-01T01:49:37;15.43;;;13.93;;
63807;SDS011;49961;43.970;22.868;2022-09-01T01:50:42;16.90;;;15.10;;
63807;SDS011;49961;43.970;22.868;2022-09-01T01:51:46;17.50;;;15.80;;
63807;SDS011;49961;43.970;22.868;2022-09-01T01:52:47;18.97;;;15.40;;
63807;SDS011;49961;43.970;22.868;2022-09-01T01:53:48;18.80;;;14.80;;
63807;SDS011;49961;43.970;22.868;2022-09-01T01:54:51;17.33;;;14.97;;
63807;SDS011;49961;43.970;22.868;2022-09-01T01:55:52;19.13;;;14.93;;
63807;SDS011;49961;43.970;22.868;2022-09-01T01:56:53;18.50;;;14.03;;
63807;SDS011;49961;43.970;22.868;2022-09-01T01:57:54;15.23;;;13.60;;
63807;SDS011;49961;43.970;22.868;2022-09-01T01:58:55;16.40;;;14.70;;
63807;SDS011;49961;43.970;22.868;2022-09-01T01:59:56;16.63;;;14.00;;
63807;SDS011;49961;43.970;22.868;2022-09-01T02:00:57;16.13;;;14.43;;
63807;SDS011;49961;43.970;22.868;2022-09-01T02:01:58;18.87;;;14.27;;
63807;SDS011;49961;43.970;22.868;2022-09-01T02:03:09;17.30;;;15.50;;
63807;SDS011;49961;43.970;22.868;2022-09-01T02:04:11;18.60;;;15.70;;
63807;SDS011;49961;43.970;22.868;2022-09-01T02:05:14;17.30;;;15.33;;
63807;SDS011;49961;43.970;22.868;2022-09-01T02:06:22;15.77;;;14.10;;
63807;SDS011;49961;43.970;22.868;2022-09-01T02:07:24;15.53;;;13.97;;
63807;SDS011;49961;43.970;22.868;2022-09-01T02:08:26;16.43;;;14.27;;
63807;SDS011;49961;43.970;22.868;2022-09-01T02:09:26;17.23;;;15.33;;
63807;SDS011;49961;43.970;22.868;2022-09-01T02:10:28;19.27;;;16.57;;
63807;SDS011;49961;43.970;22.868;2022-09-01T02:11:31;19.83;;;17.90;;
63807;SDS011;49961;43.970;22.868;2022-09-01T02:12:33;19.47;;;17.10;;
63807;SDS011;49961;43.970;22.868;2022-09-01T02:13:33;19.17;;;17.07;;
63807;SDS011;49961;43.970;22.868;2022-09-01T02:14:34;19.60;;;17.67;;
63807;SDS011;49961;43.970;22.868;2022-09-01T02:15:38;18.33;;;16.63;;
63807;SDS011;49961;43.970;22.868;2022-09-01T02:16:43;18.30;;;16.47;;
63807;SDS011;49961;43.970;22.868;2022-09-01T02:17:44;19.27;;;17.27;;
63807;SDS011;49961;43.970;22.868;2022-09-01T02:18:45;20.37;;;16.53;;
63807;SDS011;49961;43.970;22.868;2022-09-01T02:19:50;18.73;;;16.83;;
63807;SDS011;49961;43.970;22.868;2022-09-01T02:20:56;17.37;;;15.43;;
63807;SDS011;49961;43.970;22.868;2022-09-01T02:21:58;16.77;;;14.87;;
63807;SDS011;49961;43.970;22.868;2022-09-01T02:22:59;18.53;;;16.00;;
63807;SDS011;49961;43.970;22.868;2022-09-01T02:24:09;17.90;;;15.23;;
63807;SDS011;49961;43.970;22.868;2022-09-01T02:25:11;25.30;;;16.47;;
63807;SDS011;49961;43.970;22.868;2022-09-01T02:26:15;18.73;;;15.70;;
63807;SDS011;49961;43.970;22.868;2022-09-01T02:27:18;18.17;;;15.13;;
63807;SDS011;49961;43.970;22.868;2022-09-01T02:28:24;18.63;;;16.90;;
63807;SDS011;49961;43.970;22.868;2022-09-01T02:29:26;20.00;;;17.40;;
63807;SDS011;49961;43.970;22.868;2022-09-01T02:30:27;23.73;;;17.23;;
63807;SDS011;49961;43.970;22.868;2022-09-01T02:31:31;20.40;;;17.47;;
63807;SDS011;49961;43.970;22.868;2022-09-01T02:34:00;18.20;;;16.57;;
63807;SDS011;49961;43.970;22.868;2022-09-01T02:35:03;18.67;;;16.83;;
63807;SDS011;49961;43.970;22.868;2022-09-01T02:36:11;20.80;;;17.07;;
63807;SDS011;49961;43.970;22.868;2022-09-01T02:37:14;19.73;;;16.40;;
63807;SDS011;49961;43.970;22.868;2022-09-01T02:38:15;19.43;;;16.90;;
63807;SDS011;49961;43.970;22.868;2022-09-01T02:39:18;19.20;;;17.17;;
63807;SDS011;49961;43.970;22.868;2022-09-01T02:40:27;18.43;;;16.73;;
63807;SDS011;49961;43.970;22.868;2022-09-01T02:41:30;20.57;;;16.33;;
63807;SDS011;49961;43.970;22.868;2022-09-01T02:42:31;19.60;;;17.60;;
63807;SDS011;49961;43.970;22.868;2022-09-01T02:43:32;20.00;;;18.10;;
63807;SDS011;49961;43.970;22.868;2022-09-01T02:44:32;21.43;;;18.30;;
63807;SDS011;49961;43.970;22.868;2022-09-01T02:45:33;20.23;;;18.13;;
63807;SDS011;49961;43.970;22.868;2022-09-01T02:46:34;20.00;;;17.87;;
63807;SDS011;49961;43.970;22.868;2022-09-01T02:47:37;22.90;;;19.40;;
63807;SDS011;49961;43.970;22.868;2022-09-01T02:48:44;20.17;;;18.13;;
63807;SDS011;49961;43.970;22.868;2022-09-01T02:49:45;20.90;;;18.63;;
63807;SDS011;49961;43.970;22.868;2022-09-01T02:50:45;20.47;;;18.60;;
63807;SDS011;49961;43.970;22.868;2022-09-01T02:51:47;20.67;;;18.63;;
63807;SDS011;49961;43.970;22.868;2022-09-01T02:52:51;20.30;;;18.20;;
63807;SDS011;49961;43.970;22.868;2022-09-01T02:53:52;20.80;;;18.57;;
63807;SDS011;49961;43.970;22.868;2022-09-01T02:54:53;20.80;;;18.70;;
63807;SDS011;49961;43.970;22.868;2022-09-01T02:55:54;20.33;;;18.10;;
63807;SDS011;49961;43.970;22.868;2022-09-01T02:56:58;20.50;;;18.30;;
63807;SDS011;49961;43.970;22.868;2022-09-01T02:57:59;20.07;;;18.10;;
63807;SDS011;49961;43.970;22.868;2022-09-01T02:58:59;19.83;;;18.00;;
63807;SDS011;49961;43.970;22.868;2022-09-01T03:00:01;19.77;;;17.77;;
63807;SDS011;49961;43.970;22.868;2022-09-01T03:01:03;19.70;;;17.90;;
63807;SDS011;49961;43.970;22.868;2022-09-01T03:02:03;20.73;;;18.93;;
63807;SDS011;49961;43.970;22.868;2022-09-01T03:03:07;20.90;;;18.80;;
63807;SDS011;49961;43.970;22.868;2022-09-01T03:04:08;21.67;;;19.57;;
63807;SDS011;49961;43.970;22.868;2022-09-01T03:05:11;21.90;;;19.87;;
63807;SDS011;49961;43.970;22.868;2022-09-01T03:06:15;21.93;;;19.83;;
63807;SDS011;49961;43.970;22.868;2022-09-01T03:07:18;22.27;;;20.00;;
63807;SDS011;49961;43.970;22.868;2022-09-01T03:08:21;22.53;;;20.20;;
63807;SDS011;49961;43.970;22.868;2022-09-01T03:09:23;22.27;;;19.53;;
63807;SDS011;49961;43.970;22.868;2022-09-01T03:10:25;22.47;;;20.07;;
63807;SDS011;49961;43.970;22.868;2022-09-01T03:11:31;22.90;;;19.53;;
63807;SDS011;49961;43.970;22.868;2022-09-01T03:12:34;22.23;;;20.07;;
63807;SDS011;49961;43.970;22.868;2022-09-01T03:13:35;25.40;;;20.20;;
63807;SDS011;49961;43.970;22.868;2022-09-01T03:14:38;21.37;;;19.27;;
63807;SDS011;49961;43.970;22.868;2022-09-01T03:15:38;21.43;;;19.33;;
63807;SDS011;49961;43.970;22.868;2022-09-01T03:16:39;22.73;;;20.33;;
63807;SDS011;49961;43.970;22.868;2022-09-01T03:17:40;22.50;;;20.27;;
63807;SDS011;49961;43.970;22.868;2022-09-01T03:18:41;23.00;;;20.60;;
63807;SDS011;49961;43.970;22.868;2022-09-01T03:19:41;22.77;;;20.47;;
63807;SDS011;49961;43.970;22.868;2022-09-01T03:20:44;22.30;;;19.73;;
63807;SDS011;49961;43.970;22.868;2022-09-01T03:21:46;21.17;;;19.07;;
63807;SDS011;49961;43.970;22.868;2022-09-01T03:22:48;21.10;;;19.20;;
63807;SDS011;49961;43.970;22.868;2022-09-01T03:23:51;21.07;;;19.00;;
63807;SDS011;49961;43.970;22.868;2022-09-01T03:24:51;19.90;;;18.00;;
63807;SDS011;49961;43.970;22.868;2022-09-01T03:25:52;21.50;;;18.10;;
63807;SDS011;49961;43.970;22.868;2022-09-01T03:26:52;21.23;;;18.43;;
63807;SDS011;49961;43.970;22.868;2022-09-01T03:27:55;22.53;;;18.37;;
63807;SDS011;49961;43.970;22.868;2022-09-01T03:28:58;19.90;;;18.03;;
63807;SDS011;49961;43.970;22.868;2022-09-01T03:29:58;20.17;;;18.27;;
63807;SDS011;49961;43.970;22.868;2022-09-01T03:32:58;19.17;;;17.37;;
63807;SDS011;49961;43.970;22.868;2022-09-01T03:34:00;19.70;;;17.80;;
63807;SDS011;49961;43.970;22.868;2022-09-01T03:35:02;19.90;;;17.90;;
63807;SDS011;49961;43.970;22.868;2022-09-01T03:36:04;19.33;;;17.53;;
63807;SDS011;49961;43.970;22.868;2022-09-01T03:37:05;20.60;;;18.33;;
63807;SDS011;49961;43.970;22.868;2022-09-01T03:38:06;20.33;;;18.40;;
63807;SDS011;49961;43.970;22.868;2022-09-01T03:39:07;21.13;;;18.90;;
63807;SDS011;49961;43.970;22.868;2022-09-01T03:40:09;20.80;;;18.80;;
63807;SDS011;49961;43.970;22.868;2022-09-01T03:41:11;21.20;;;18.30;;
63807;SDS011;49961;43.970;22.868;2022-09-01T03:42:12;19.90;;;18.00;;
63807;SDS011;49961;43.970;22.868;2022-09-01T03:43:19;20.07;;;17.93;;
63807;SDS011;49961;43.970;22.868;2022-09-01T03:44:23;20.30;;;18.20;;
63807;SDS011;49961;43.970;22.868;2022-09-01T03:45:24;21.13;;;18.67;;
63807;SDS011;49961;43.970;22.868;2022-09-01T03:46:26;22.23;;;19.37;;
63807;SDS011;49961;43.970;22.868;2022-09-01T03:47:29;21.53;;;19.27;;
63807;SDS011;49961;43.970;22.868;2022-09-01T03:48:30;22.23;;;19.87;;
63807;SDS011;49961;43.970;22.868;2022-09-01T03:49:31;20.20;;;17.90;;
63807;SDS011;49961;43.970;22.868;2022-09-01T03:50:31;20.17;;;18.17;;
63807;SDS011;49961;43.970;22.868;2022-09-01T03:51:32;19.40;;;16.80;;
63807;SDS011;49961;43.970;22.868;2022-09-01T03:52:33;18.87;;;16.97;;
63807;SDS011;49961;43.970;22.868;2022-09-01T03:53:36;19.23;;;16.67;;
63807;SDS011;49961;43.970;22.868;2022-09-01T03:54:37;18.43;;;16.73;;
63807;SDS011;49961;43.970;22.868;2022-09-01T03:55:38;18.87;;;16.70;;
63807;SDS011;49961;43.970;22.868;2022-09-01T03:56:39;18.50;;;16.67;;
63807;SDS011;49961;43.970;22.868;2022-09-01T03:57:40;19.60;;;15.93;;
63807;SDS011;49961;43.970;22.868;2022-09-01T03:58:41;17.90;;;16.10;;
63807;SDS011;49961;43.970;22.868;2022-09-01T03:59:46;24.80;;;16.77;;
63807;SDS011;49961;43.970;22.868;2022-09-01T04:00:48;18.30;;;16.43;;
63807;SDS011;49961;43.970;22.868;2022-09-01T04:01:54;17.73;;;15.87;;
63807;SDS011;49961;43.970;22.868;2022-09-01T04:02:57;21.47;;;16.53;;
63807;SDS011;49961;43.970;22.868;2022-09-01T04:03:58;17.87;;;16.27;;
63807;SDS011;49961;43.970;22.868;2022-09-01T04:05:00;17.57;;;15.63;;
63807;SDS011;49961;43.970;22.868;2022-09-01T04:06:01;19.33;;;16.33;;
63807;SDS011;49961;43.970;22.868;2022-09-01T04:07:01;22.87;;;17.87;;
63807;SDS011;49961;43.970;22.868;2022-09-01T04:08:05;21.60;;;16.50;;
63807;SDS011;49961;43.970;22.868;2022-09-01T04:09:09;19.97;;;16.83;;
63807;SDS011;49961;43.970;22.868;2022-09-01T04:10:10;18.73;;;16.80;;
63807;SDS011;49961;43.970;22.868;2022-09-01T04:11:17;19.50;;;17.43;;
63807;SDS011;49961;43.970;22.868;2022-09-01T04:12:21;19.13;;;17.23;;
63807;SDS011;49961;43.970;22.868;2022-09-01T04:13:23;20.70;;;18.07;;
63807;SDS011;49961;43.970;22.868;2022-09-01T04:14:26;21.53;;;18.07;;
63807;SDS011;49961;43.970;22.868;2022-09-01T04:15:27;20.53;;;18.27;;
63807;SDS011;49961;43.970;22.868;2022-09-01T04:16:29;20.47;;;18.33;;
63807;SDS011;49961;43.970;22.868;2022-09-01T04:17:50;20.90;;;18.17;;
63807;SDS011;49961;43.970;22.868;2022-09-01T04:19:09;20.33;;;18.17;;
63807;SDS011;49961;43.970;22.868;2022-09-01T04:20:24;21.63;;;18.30;;
63807;SDS011;49961;43.970;22.868;2022-09-01T04:21:25;20.90;;;18.60;;
63807;SDS011;49961;43.970;22.868;2022-09-01T04:22:25;21.77;;;18.97;;
63807;SDS011;49961;43.970;22.868;2022-09-01T04:23:29;20.03;;;17.73;;
63807;SDS011;49961;43.970;22.868;2022-09-01T04:24:32;21.40;;;17.87;;
63807;SDS011;49961;43.970;22.868;2022-09-01T04:25:33;21.23;;;18.97;;
63807;SDS011;49961;43.970;22.868;2022-09-01T04:26:35;20.43;;;17.40;;
63807;SDS011;49961;43.970;22.868;2022-09-01T04:27:37;19.37;;;17.57;;
63807;SDS011;49961;43.970;22.868;2022-09-01T04:28:42;21.93;;;18.43;;
63807;SDS011;49961;43.970;22.868;2022-09-01T04:29:48;20.57;;;18.47;;
63807;SDS011;49961;43.970;22.868;2022-09-01T04:30:49;20.83;;;18.60;;
63807;SDS011;49961;43.970;22.868;2022-09-01T04:31:56;20.93;;;18.80;;
63807;SDS011;49961;43.970;22.868;2022-09-01T04:33:06;22.00;;;19.17;;
63807;SDS011;49961;43.970;22.868;2022-09-01T04:34:07;22.53;;;19.47;;
63807;SDS011;49961;43.970;22.868;2022-09-01T04:35:12;21.67;;;19.40;;
63807;SDS011;49961;43.970;22.868;2022-09-01T04:36:18;20.93;;;18.90;;
63807;SDS011;49961;43.970;22.868;2022-09-01T04:37:21;21.50;;;18.80;;
63807;SDS011;49961;43.970;22.868;2022-09-01T04:38:23;21.37;;;19.17;;
63807;SDS011;49961;43.970;22.868;2022-09-01T04:39:23;21.70;;;18.77;;
63807;SDS011;49961;43.970;22.868;2022-09-01T04:40:24;22.10;;;20.10;;
63807;SDS011;49961;43.970;22.868;2022-09-01T04:41:27;21.93;;;19.40;;
63807;SDS011;49961;43.970;22.868;2022-09-01T04:42:31;22.07;;;19.77;;
63807;SDS011;49961;43.970;22.868;2022-09-01T04:43:34;21.33;;;19.13;;
63807;SDS011;49961;43.970;22.868;2022-09-01T04:44:35;20.80;;;18.90;;
63807;SDS011;49961;43.970;22.868;2022-09-01T04:45:36;20.50;;;18.33;;
63807;SDS011;49961;43.970;22.868;2022-09-01T04:46:38;20.77;;;18.60;;
63807;SDS011;49961;43.970;22.868;2022-09-01T04:47:41;21.20;;;18.90;;
63807;SDS011;49961;43.970;22.868;2022-09-01T04:48:42;22.67;;;19.77;;
63807;SDS011;49961;43.970;22.868;2022-09-01T04:49:46;21.50;;;19.23;;
63807;SDS011;49961;43.970;22.868;2022-09-01T04:50:47;20.53;;;18.43;;
63807;SDS011;49961;43.970;22.868;2022-09-01T04:51:49;21.57;;;19.47;;
63807;SDS011;49961;43.970;22.868;2022-09-01T04:52:51;21.90;;;19.57;;
63807;SDS011;49961;43.970;22.868;2022-09-01T04:53:55;22.47;;;20.07;;
63807;SDS011;49961;43.970;22.868;2022-09-01T04:54:56;21.40;;;19.30;;
63807;SDS011;49961;43.970;22.868;2022-09-01T04:56:01;21.80;;;19.70;;
63807;SDS011;49961;43.970;22.868;2022-09-01T04:57:03;23.27;;;19.80;;
63807;SDS011;49961;43.970;22.868;2022-09-01T04:58:07;21.77;;;19.63;;
63807;SDS011;49961;43.970;22.868;2022-09-01T04:59:10;21.10;;;19.07;;
63807;SDS011;49961;43.970;22.868;2022-09-01T05:00:13;21.10;;;19.20;;
63807;SDS011;49961;43.970;22.868;2022-09-01T05:01:24;20.13;;;18.43;;
63807;SDS011;49961;43.970;22.868;2022-09-01T05:02:25;21.47;;;19.13;;
63807;SDS011;49961;43.970;22.868;2022-09-01T05:03:27;20.73;;;18.57;;
63807;SDS011;49961;43.970;22.868;2022-09-01T05:04:31;20.13;;;17.97;;
63807;SDS011;49961;43.970;22.868;2022-09-01T05:05:50;18.80;;;17.10;;
63807;SDS011;49961;43.970;22.868;2022-09-01T05:06:53;18.97;;;17.13;;
63807;SDS011;49961;43.970;22.868;2022-09-01T05:07:58;18.67;;;16.97;;
63807;SDS011;49961;43.970;22.868;2022-09-01T05:08:59;18.77;;;16.87;;
63807;SDS011;49961;43.970;22.868;2022-09-01T05:09:59;19.10;;;17.40;;
63807;SDS011;49961;43.970;22.868;2022-09-01T05:11:02;20.73;;;18.07;;
63807;SDS011;49961;43.970;22.868;2022-09-01T05:12:06;19.87;;;17.97;;
63807;SDS011;49961;43.970;22.868;2022-09-01T05:13:10;20.17;;;18.37;;
63807;SDS011;49961;43.970;22.868;2022-09-01T05:14:13;20.60;;;18.50;;
63807;SDS011;49961;43.970;22.868;2022-09-01T05:15:17;21.17;;;18.40;;
63807;SDS011;49961;43.970;22.868;2022-09-01T05:16:19;20.63;;;18.63;;
63807;SDS011;49961;43.970;22.868;2022-09-01T05:17:20;20.53;;;18.43;;
63807;SDS011;49961;43.970;22.868;2022-09-01T05:18:21;21.17;;;19.13;;
63807;SDS011;49961;43.970;22.868;2022-09-01T05:19:24;22.00;;;19.73;;
63807;SDS011;49961;43.970;22.868;2022-09-01T05:20:28;20.80;;;18.70;;
63807;SDS011;49961;43.970;22.868;2022-09-01T05:21:29;21.63;;;19.27;;
63807;SDS011;49961;43.970;22.868;2022-09-01T05:22:30;21.03;;;18.97;;
63807;SDS011;49961;43.970;22.868;2022-09-01T05:23:30;21.87;;;19.50;;
63807;SDS011;49961;43.970;22.868;2022-09-01T05:24:31;20.47;;;18.57;;
63807;SDS011;49961;43.970;22.868;2022-09-01T05:25:37;21.27;;;19.17;;
63807;SDS011;49961;43.970;22.868;2022-09-01T05:26:41;21.80;;;19.57;;
63807;SDS011;49961;43.970;22.868;2022-09-01T05:27:42;21.13;;;19.17;;
63807;SDS011;49961;43.970;22.868;2022-09-01T05:28:49;22.27;;;20.13;;
63807;SDS011;49961;43.970;22.868;2022-09-01T05:29:52;23.30;;;20.97;;
63807;SDS011;49961;43.970;22.868;2022-09-01T05:30:53;23.43;;;21.03;;
63807;SDS011;49961;43.970;22.868;2022-09-01T05:31:54;23.10;;;20.90;;
63807;SDS011;49961;43.970;22.868;2022-09-01T05:32:54;22.63;;;20.37;;
63807;SDS011;49961;43.970;22.868;2022-09-01T05:33:55;22.60;;;20.40;;
63807;SDS011;49961;43.970;22.868;2022-09-01T05:34:57;23.00;;;20.73;;
63807;SDS011;49961;43.970;22.868;2022-09-01T05:35:57;22.47;;;20.40;;
63807;SDS011;49961;43.970;22.868;2022-09-01T05:37:03;23.23;;;21.03;;
63807;SDS011;49961;43.970;22.868;2022-09-01T05:38:07;24.83;;;22.27;;
63807;SDS011;49961;43.970;22.868;2022-09-01T05:39:11;24.37;;;21.80;;
63807;SDS011;49961;43.970;22.868;2022-09-01T05:40:12;23.60;;;21.30;;
63807;SDS011;49961;43.970;22.868;2022-09-01T05:41:15;23.03;;;20.83;;
63807;SDS011;49961;43.970;22.868;2022-09-01T05:42:18;24.63;;;22.27;;
63807;SDS011;49961;43.970;22.868;2022-09-01T05:43:18;23.70;;;21.23;;
63807;SDS011;49961;43.970;22.868;2022-09-01T05:44:20;24.60;;;22.17;;
63807;SDS011;49961;43.970;22.868;2022-09-01T05:45:21;23.77;;;21.53;;
63807;SDS011;49961;43.970;22.868;2022-09-01T05:46:24;24.73;;;22.17;;
63807;SDS011;49961;43.970;22.868;2022-09-01T05:47:27;24.90;;;22.47;;
63807;SDS011;49961;43.970;22.868;2022-09-01T05:48:28;25.83;;;23.10;;
63807;SDS011;49961;43.970;22.868;2022-09-01T05:49:30;25.10;;;22.60;;
63807;SDS011;49961;43.970;22.868;2022-09-01T05:50:32;24.33;;;21.93;;
63807;SDS011;49961;43.970;22.868;2022-09-01T05:51:32;24.37;;;21.87;;
63807;SDS011;49961;43.970;22.868;2022-09-01T05:52:37;25.50;;;22.90;;
63807;SDS011;49961;43.970;22.868;2022-09-01T05:53:38;25.73;;;22.97;;
63807;SDS011;49961;43.970;22.868;2022-09-01T05:54:39;25.13;;;22.60;;
63807;SDS011;49961;43.970;22.868;2022-09-01T05:55:41;24.43;;;22.03;;
63807;SDS011;49961;43.970;22.868;2022-09-01T05:56:45;23.47;;;21.23;;
63807;SDS011;49961;43.970;22.868;2022-09-01T05:57:46;23.80;;;21.57;;
63807;SDS011;49961;43.970;22.868;2022-09-01T05:58:46;24.37;;;22.07;;
63807;SDS011;49961;43.970;22.868;2022-09-01T05:59:47;24.63;;;22.13;;
63807;SDS011;49961;43.970;22.868;2022-09-01T06:00:53;24.63;;;22.23;;
63807;SDS011;49961;43.970;22.868;2022-09-01T06:01:58;24.70;;;22.23;;
63807;SDS011;49961;43.970;22.868;2022-09-01T06:02:59;23.00;;;20.60;;
63807;SDS011;49961;43.970;22.868;2022-09-01T06:04:03;23.83;;;21.33;;
63807;SDS011;49961;43.970;22.868;2022-09-01T06:05:06;25.30;;;20.90;;
63807;SDS011;49961;43.970;22.868;2022-09-01T06:06:07;21.33;;;19.13;;
63807;SDS011;49961;43.970;22.868;2022-09-01T06:07:11;23.47;;;21.27;;
63807;SDS011;49961;43.970;22.868;2022-09-01T06:08:13;21.47;;;19.33;;